Vers la page d'accueil de NAV CANADA Ouverture d'une nouvelle session Chercher sur le site AWWS Clause de non-reponsabilité To the equivalent English page Trucs et astuces FAQ Quoi de neuf sur le site Vers la section Prévisions et observations / NOTAM Vers le site web pour <<Déposer un plan de vol>> Publications et liens importants Mise à jour du profil d'usager Numéros de téléphone des FIC Mes données météo personnelles Données météo de route Données météo régionales Données météo locales Vers la section Prévisions et observations / NOTAM
Requête générée le 2019/03/19 à 23:18:13 UTC. L'information météorologique disponible à ce moment est affichée.

METAR/TAF

Si vous notez des différences entre le METAR/TAF codé et le METAR/TAF en langage clair, veuillez utiliser la version codée. Les bulletins LWIS ne sont pas décodés en langage clair.

MONTREAL/ST-HUBERT/QC    (voir Cam météo)

METAR CYHU 192300Z AUTO 24008KT 9SM CLR M01/M11 A3035 RMK SLP282=
METAR
LIEU
CYHU - MONTREAL/ST-HUBERT/QC
DATE - HEURE
19 MARS 2019 - 2300 UTC
VENT
240 VRAIS @ 8  NOEUDS
VISIBILITE
9 MILLES TERR.
PORTEE VISUELLE DE PISTE
METEO
NEBULOSITE
CIEL DEGAGE
TEMP / PT DE ROSEE
-1 C / -11 C
ALTIMETRE
30.35 PO HG
TEMPS RECENT
CISAILLEMENT

METAR CYHU 192200Z AUTO 25011G16KT 9SM CLR 00/M12 A3035 RMK SLP281=
METAR
LIEU
CYHU - MONTREAL/ST-HUBERT/QC
DATE - HEURE
19 MARS 2019 - 2200 UTC
VENT
250 VRAIS @ 11  NOEUDS
RAFALES
16 NOEUDS
VISIBILITE
9 MILLES TERR.
PORTEE VISUELLE DE PISTE
METEO
NEBULOSITE
CIEL DEGAGE
TEMP / PT DE ROSEE
0 C / -12 C
ALTIMETRE
30.35 PO HG
TEMPS RECENT
CISAILLEMENT

METAR CYHU 192100Z AUTO 24015KT 9SM CLR 00/M13 A3035 RMK SLP282=
METAR
LIEU
CYHU - MONTREAL/ST-HUBERT/QC
DATE - HEURE
19 MARS 2019 - 2100 UTC
VENT
240 VRAIS @ 15  NOEUDS
VISIBILITE
9 MILLES TERR.
PORTEE VISUELLE DE PISTE
METEO
NEBULOSITE
CIEL DEGAGE
TEMP / PT DE ROSEE
0 C / -13 C
ALTIMETRE
30.35 PO HG
TEMPS RECENT
CISAILLEMENT

TAF CYHU 191740Z 1918/2018 21008KT P6SM FEW240 BECMG 2000/2002 VRB03KT FM201200 VRB03KT P6SM SCT240 RMK FCST BASED ON AUTO OBS. NXT FCST BY 200000Z=
TAF
LIEU

CYHU - MONTREAL/ST-HUBERT/QC
VALIDITE [UTC]
19 MAR - 1740 à
20 MAR - 1800
 
PERIODES
[UTC]
VENT
[DEGRES VRAIS]
VISIBILITE
[MILLES TERR.]
METEO
NEBULOSITE
[PIEDS AGL]
 
19 MAR - 1800 à
20 MAR - 1200
210 @ 8 NOEUDS
6+
---
24000 QUELQUES
CHANGEMENTS GRADUELS
20 MAR - 0000 à
20 MAR - 0200
VARIABLE @ 3 NOEUDS
 
 
 
 
20 MAR - 1200 à
20 MAR - 1800
VARIABLE @ 3 NOEUDS
6+
---
24000 EPARS
REMARQUES
LA PREVISION EST FONDEE SUR DES OBSERVATIONS AUTOMATISEES - LA PREVISION SUIVANTE SERA EMISE POUR 0000 UTC LE 20


Votre heure Heure UTC
Données météorologiques fournies par Environnement Canada et NAV CANADA